createdAt,value
2019-05-11T00:02:14.901Z,52.83
2019-05-11T00:04:43.057Z,54.40
2019-05-11T00:07:10.998Z,50.47
2019-05-11T00:09:38.864Z,46.10
2019-05-11T00:12:06.861Z,46.43
2019-05-11T00:14:34.851Z,46.40
2019-05-11T00:17:04.181Z,42.53
2019-05-11T00:19:51.481Z,40.60
2019-05-11T00:22:19.468Z,39.90
2019-05-11T00:24:47.350Z,41.00
2019-05-11T00:27:15.232Z,40.10
2019-05-11T00:29:43.179Z,35.93
2019-05-11T00:32:11.002Z,38.50
2019-05-11T00:34:38.944Z,34.70
2019-05-11T00:37:06.833Z,37.40
2019-05-11T00:39:34.626Z,33.83
2019-05-11T00:42:02.529Z,32.87
2019-05-11T00:44:30.259Z,34.90
2019-05-11T00:46:58.249Z,31.60
2019-05-11T00:49:28.442Z,30.03
2019-05-11T00:51:56.663Z,32.20
2019-05-11T00:54:24.574Z,30.17
2019-05-11T00:56:52.326Z,31.33
2019-05-11T00:59:22.235Z,29.20
2019-05-11T01:01:51.425Z,30.17
2019-05-11T01:04:19.334Z,30.43
2019-05-11T01:06:47.120Z,29.40
2019-05-11T01:09:14.976Z,30.90
2019-05-11T01:11:42.753Z,29.73
2019-05-11T01:14:10.481Z,29.13
2019-05-11T01:16:38.252Z,28.63
2019-05-11T01:19:05.982Z,28.47
2019-05-11T01:21:33.587Z,30.50
2019-05-11T01:24:01.494Z,29.43
2019-05-11T01:26:29.335Z,29.03
2019-05-11T01:28:57.210Z,27.97
2019-05-11T01:31:25.201Z,27.90
2019-05-11T01:33:53.095Z,28.30
2019-05-11T01:36:21.033Z,27.53
2019-05-11T01:38:48.890Z,27.90
2019-05-11T01:41:16.881Z,26.00
2019-05-11T01:43:44.794Z,26.73
2019-05-11T01:46:12.658Z,27.47
2019-05-11T01:48:40.964Z,24.83
2019-05-11T01:51:08.920Z,26.07
2019-05-11T01:53:36.766Z,25.43
2019-05-11T01:56:04.741Z,25.03
2019-05-11T01:58:32.636Z,24.13
2019-05-11T02:01:00.780Z,25.93
2019-05-11T02:03:28.900Z,24.33
2019-05-11T02:05:59.211Z,23.53
2019-05-11T02:08:27.447Z,23.83
2019-05-11T02:10:55.333Z,24.30
2019-05-11T02:13:23.124Z,23.87
2019-05-11T02:15:50.957Z,23.33
2019-05-11T02:18:19.070Z,23.63
2019-05-11T02:20:49.631Z,23.03
2019-05-11T02:23:17.474Z,23.63
2019-05-11T02:25:46.008Z,23.37
2019-05-11T02:28:13.788Z,22.77
2019-05-11T02:30:41.643Z,22.70
2019-05-11T02:33:10.017Z,24.70
2019-05-11T02:35:37.890Z,23.10
2019-05-11T02:38:05.690Z,23.70
2019-05-11T02:40:33.905Z,24.00
2019-05-11T02:43:01.628Z,24.17
2019-05-11T02:45:38.020Z,22.70
2019-05-11T02:48:05.974Z,21.97
2019-05-11T02:50:35.722Z,23.77
2019-05-11T02:53:04.530Z,23.30
2019-05-11T02:55:36.251Z,23.07
2019-05-11T02:58:05.120Z,21.90
2019-05-11T03:00:52.662Z,22.53
2019-05-11T03:03:20.461Z,21.83
2019-05-11T03:05:48.345Z,22.57
2019-05-11T03:08:16.160Z,23.10
2019-05-11T03:10:43.970Z,24.07
2019-05-11T03:13:11.781Z,22.13
2019-05-11T03:15:39.596Z,23.33
2019-05-11T03:18:09.331Z,23.20
2019-05-11T03:20:37.279Z,22.10
2019-05-11T03:23:05.609Z,22.87
2019-05-11T03:25:33.309Z,23.03
2019-05-11T03:28:01.461Z,22.53
2019-05-11T03:30:29.382Z,23.80
2019-05-11T03:32:57.670Z,23.10
2019-05-11T03:35:27.028Z,23.63
2019-05-11T03:37:54.828Z,23.30
2019-05-11T03:40:23.151Z,23.97
2019-05-11T03:43:01.941Z,23.17
2019-05-11T03:45:24.081Z,24.13
2019-05-11T03:47:53.340Z,23.40
2019-05-11T03:50:21.209Z,24.13
2019-05-11T03:52:59.443Z,24.10
2019-05-11T03:55:35.286Z,24.33
2019-05-11T03:58:14.136Z,24.57
2019-05-11T04:00:43.349Z,24.17
2019-05-11T04:03:11.466Z,26.03
2019-05-11T04:05:41.287Z,24.20
2019-05-11T04:08:09.147Z,24.23
2019-05-11T04:10:37.105Z,25.80
2019-05-11T04:13:04.701Z,25.40
2019-05-11T04:15:32.813Z,25.53
2019-05-11T04:18:00.537Z,25.23
2019-05-11T04:20:28.174Z,25.93
2019-05-11T04:22:56.688Z,25.70
2019-05-11T04:25:24.532Z,25.33
2019-05-11T04:27:53.529Z,25.23
2019-05-11T04:30:25.699Z,26.60
2019-05-11T04:32:54.026Z,24.73
2019-05-11T04:35:21.796Z,26.33
2019-05-11T04:37:49.538Z,25.53
2019-05-11T04:40:21.955Z,26.30
2019-05-11T04:42:55.752Z,26.50
2019-05-11T04:45:29.086Z,25.37
2019-05-11T04:47:56.493Z,25.27
2019-05-11T04:50:24.127Z,25.40
2019-05-11T04:52:52.302Z,26.10
2019-05-11T04:55:20.174Z,25.53
2019-05-11T04:57:48.017Z,23.77
2019-05-11T05:00:17.487Z,24.93
2019-05-11T05:02:46.771Z,23.53
2019-05-11T05:05:14.595Z,22.57
2019-05-11T05:07:48.646Z,23.53
2019-05-11T05:10:19.600Z,23.30
2019-05-11T05:12:50.375Z,23.13
2019-05-11T05:15:15.536Z,22.70
2019-05-11T05:17:43.848Z,23.70
2019-05-11T05:20:11.598Z,23.07
2019-05-11T05:22:39.314Z,22.60
2019-05-11T05:25:20.993Z,23.30
2019-05-11T05:27:48.955Z,21.57
2019-05-11T05:30:16.828Z,21.83
2019-05-11T05:32:44.664Z,22.43
2019-05-11T05:35:26.206Z,21.63
2019-05-11T05:37:54.028Z,21.13
2019-05-11T05:40:21.935Z,22.70
2019-05-11T05:42:49.795Z,22.30
2019-05-11T05:45:17.548Z,22.10
2019-05-11T05:47:45.357Z,20.60
2019-05-11T05:50:17.624Z,21.77
2019-05-11T05:52:45.550Z,22.23
2019-05-11T05:55:13.241Z,22.17
2019-05-11T05:57:41.156Z,22.33
2019-05-11T06:00:11.323Z,23.80
2019-05-11T06:02:39.376Z,23.17
2019-05-11T06:05:08.159Z,23.93
2019-05-11T06:07:36.069Z,25.90
2019-05-11T06:10:04.730Z,24.07
2019-05-11T06:12:32.431Z,24.47
2019-05-11T06:15:10.881Z,24.70
2019-05-11T06:17:38.641Z,24.50
2019-05-11T06:20:07.533Z,24.70
2019-05-11T06:22:35.632Z,24.70
2019-05-11T06:25:03.559Z,24.80
2019-05-11T06:27:31.301Z,24.83
2019-05-11T06:29:58.903Z,26.10
2019-05-11T06:32:27.088Z,25.73
2019-05-11T06:34:54.785Z,26.23
2019-05-11T06:37:22.549Z,26.53
2019-05-11T06:39:51.353Z,26.67
2019-05-11T06:42:19.077Z,27.27
2019-05-11T06:44:46.788Z,26.57
2019-05-11T06:47:14.512Z,26.90
2019-05-11T06:49:45.238Z,26.03
2019-05-11T06:52:12.991Z,25.53
2019-05-11T06:54:40.694Z,24.57
2019-05-11T06:57:08.433Z,24.80
2019-05-11T06:59:36.043Z,24.90
2019-05-11T07:02:03.725Z,24.20
2019-05-11T07:04:31.426Z,21.83
2019-05-11T07:06:59.119Z,22.43
2019-05-11T07:09:26.808Z,22.23
2019-05-11T07:11:54.841Z,21.20
2019-05-11T07:14:22.662Z,21.23
2019-05-11T07:16:50.241Z,20.50
2019-05-11T07:19:17.963Z,17.17
2019-05-11T07:21:45.612Z,18.10
2019-05-11T07:24:13.313Z,17.50
2019-05-11T07:26:41.152Z,17.27
2019-05-11T07:29:08.796Z,16.43
2019-05-11T07:31:36.745Z,15.83
2019-05-11T07:34:04.580Z,16.23
2019-05-11T07:36:32.244Z,16.10
2019-05-11T07:38:59.887Z,14.87
2019-05-11T07:41:28.089Z,13.60
2019-05-11T07:43:56.093Z,14.33
2019-05-11T07:46:23.853Z,12.17
2019-05-11T07:48:51.670Z,11.40
2019-05-11T07:51:19.249Z,10.87
2019-05-11T07:53:48.626Z,12.10
2019-05-11T07:56:18.531Z,11.03
2019-05-11T07:58:47.866Z,9.73
2019-05-11T08:01:15.113Z,10.33
2019-05-11T08:03:43.845Z,10.67
2019-05-11T08:06:11.441Z,10.97
2019-05-11T08:08:39.047Z,10.70
2019-05-11T08:11:08.102Z,11.17
2019-05-11T08:13:36.042Z,12.53
2019-05-11T08:16:03.993Z,12.73
2019-05-11T08:18:31.662Z,13.10
2019-05-11T08:20:59.222Z,12.60
2019-05-11T08:23:28.569Z,11.33
2019-05-11T08:25:58.112Z,10.90
2019-05-11T08:28:25.977Z,10.43
2019-05-11T08:30:53.746Z,10.40
2019-05-11T08:33:21.443Z,11.73
2019-05-11T08:35:49.061Z,11.67
2019-05-11T08:38:18.057Z,10.40
2019-05-11T08:40:47.886Z,9.50
2019-05-11T08:43:17.790Z,9.17
2019-05-11T08:45:45.210Z,10.33
2019-05-11T08:48:12.837Z,9.87
2019-05-11T08:50:40.801Z,10.17
2019-05-11T08:53:08.738Z,11.43
2019-05-11T08:55:38.165Z,11.60
2019-05-11T08:58:07.927Z,11.40
2019-05-11T09:00:35.581Z,12.53
2019-05-11T09:03:03.192Z,13.57
2019-05-11T09:05:30.993Z,14.27
2019-05-11T09:07:58.875Z,14.37
2019-05-11T09:10:28.065Z,14.00
2019-05-11T09:12:56.321Z,13.27
2019-05-11T09:15:33.719Z,14.03
2019-05-11T09:17:54.096Z,13.67
2019-05-11T09:20:21.826Z,13.57
2019-05-11T09:22:49.533Z,14.20
2019-05-11T09:25:18.238Z,13.57
2019-05-11T09:27:48.211Z,14.40
2019-05-11T09:30:18.379Z,13.80
2019-05-11T09:32:47.763Z,13.70
2019-05-11T09:35:15.722Z,13.83
2019-05-11T09:37:43.536Z,13.80
2019-05-11T09:40:11.941Z,13.33
2019-05-11T09:42:39.599Z,13.83
2019-05-11T09:45:08.119Z,12.37
2019-05-11T09:47:38.411Z,12.57
2019-05-11T09:50:05.581Z,11.40
2019-05-11T09:52:33.210Z,12.57
2019-05-11T09:55:00.975Z,11.57
2019-05-11T09:57:28.663Z,11.80
2019-05-11T09:59:58.216Z,11.50
2019-05-11T10:02:27.941Z,11.07
2019-05-11T10:04:57.756Z,11.87
2019-05-11T10:07:25.411Z,11.90
2019-05-11T10:09:53.138Z,12.07
2019-05-11T10:12:20.906Z,12.30
2019-05-11T10:14:48.703Z,13.23
2019-05-11T10:17:18.191Z,13.73
2019-05-11T10:19:47.492Z,17.53
2019-05-11T10:22:15.272Z,19.30
2019-05-11T10:24:42.987Z,18.90
2019-05-11T10:27:10.745Z,18.93
2019-05-11T10:29:38.461Z,17.80
2019-05-11T10:32:07.974Z,17.10
2019-05-11T10:34:38.663Z,17.77
2019-05-11T10:37:08.382Z,17.47
2019-05-11T10:39:38.167Z,17.20
2019-05-11T10:42:05.343Z,16.13
2019-05-11T10:44:33.082Z,17.07
2019-05-11T10:47:00.730Z,15.73
2019-05-11T10:49:29.032Z,14.83
2019-05-11T10:51:58.668Z,15.10
2019-05-11T10:54:28.725Z,14.70
2019-05-11T10:56:57.823Z,14.40
2019-05-11T10:59:27.943Z,15.20
2019-05-11T11:01:55.246Z,16.50
2019-05-11T11:04:38.006Z,15.97
2019-05-11T11:07:07.608Z,16.40
2019-05-11T11:09:35.454Z,16.97
2019-05-11T11:12:03.308Z,15.37
2019-05-11T11:14:31.139Z,12.93
2019-05-11T11:16:58.928Z,13.97
2019-05-11T11:19:31.391Z,13.87
2019-05-11T11:22:17.709Z,13.60
2019-05-11T11:24:28.822Z,14.33
2019-05-11T11:26:57.604Z,13.60
2019-05-11T11:29:25.587Z,13.50
2019-05-11T11:31:53.245Z,13.73
2019-05-11T11:34:21.080Z,13.07
2019-05-11T11:36:48.717Z,12.20
2019-05-11T11:39:18.560Z,12.60
2019-05-11T11:41:48.554Z,11.93
2019-05-11T11:44:18.494Z,12.87
2019-05-11T11:46:54.605Z,12.83
2019-05-11T11:49:18.827Z,12.57
2019-05-11T11:51:48.429Z,12.73
2019-05-11T11:54:18.187Z,12.80
2019-05-11T11:56:48.330Z,12.20
2019-05-11T11:59:15.208Z,11.10
2019-05-11T12:01:42.939Z,10.80
2019-05-11T12:04:10.744Z,12.30
2019-05-11T12:06:38.737Z,14.97
2019-05-11T12:09:08.761Z,13.60
2019-05-11T12:11:38.083Z,13.97
2019-05-11T12:14:05.923Z,12.70
2019-05-11T12:16:33.548Z,11.90
2019-05-11T12:19:01.208Z,12.40
2019-05-11T12:21:28.846Z,12.07
2019-05-11T12:23:58.458Z,12.03
2019-05-11T12:26:28.058Z,11.83
2019-05-11T12:28:57.572Z,11.20
2019-05-11T12:31:25.272Z,12.03
2019-05-11T12:33:53.180Z,11.43
2019-05-11T12:36:21.128Z,11.47
2019-05-11T12:38:49.047Z,10.53
2019-05-11T12:41:18.925Z,11.07
2019-05-11T12:43:46.209Z,10.33
2019-05-11T12:46:15.765Z,9.60
2019-05-11T12:48:44.305Z,9.07
2019-05-11T12:51:11.853Z,8.67
2019-05-11T12:53:39.485Z,9.10
2019-05-11T12:56:08.216Z,9.90
2019-05-11T12:58:36.351Z,10.03
2019-05-11T13:01:04.082Z,9.23
2019-05-11T13:03:31.753Z,7.97
2019-05-11T13:05:59.565Z,8.27
2019-05-11T13:08:27.839Z,8.40
2019-05-11T13:10:55.730Z,9.53
2019-05-11T13:13:23.611Z,9.67
2019-05-11T13:15:51.416Z,9.13
2019-05-11T13:18:19.224Z,8.70
2019-05-11T13:20:48.269Z,9.23
2019-05-11T13:23:18.338Z,9.87
2019-05-11T13:25:45.403Z,9.33
2019-05-11T13:28:13.226Z,8.40
2019-05-11T13:30:40.997Z,7.63
2019-05-11T13:33:08.815Z,10.57
2019-05-11T13:35:37.639Z,9.30
2019-05-11T13:38:05.404Z,8.60
2019-05-11T13:40:33.029Z,9.90
2019-05-11T13:43:00.812Z,8.70
2019-05-11T13:45:28.811Z,9.23
2019-05-11T13:47:59.189Z,8.90
2019-05-11T13:50:29.782Z,9.17
2019-05-11T13:52:58.435Z,8.13
2019-05-11T13:55:28.246Z,8.37
2019-05-11T13:57:57.699Z,7.70
2019-05-11T14:00:24.904Z,7.40
2019-05-11T14:02:58.443Z,7.63
2019-05-11T14:05:28.480Z,7.67
2019-05-11T14:07:58.705Z,8.93
2019-05-11T14:10:34.332Z,8.07
2019-05-11T14:13:02.306Z,8.40
2019-05-11T14:15:38.311Z,8.43
2019-05-11T14:18:09.335Z,7.90
2019-05-11T14:20:37.731Z,7.97
2019-05-11T14:23:05.106Z,8.83
2019-05-11T14:25:32.728Z,8.50
2019-05-11T14:28:00.631Z,8.47
2019-05-11T14:30:31.492Z,7.40
2019-05-11T14:32:59.152Z,7.07
2019-05-11T14:35:27.998Z,6.87
2019-05-11T14:37:58.799Z,7.83
2019-05-11T14:40:28.152Z,7.80
2019-05-11T14:42:57.982Z,6.75
2019-05-11T14:45:25.442Z,7.37
2019-05-11T14:47:53.037Z,6.70
2019-05-11T14:50:23.946Z,6.92
2019-05-11T14:52:51.459Z,6.62
2019-05-11T14:55:19.167Z,6.37
2019-05-11T14:57:48.576Z,7.22
2019-05-11T15:00:18.553Z,7.00
2019-05-11T15:02:48.610Z,6.08
2019-05-11T15:05:18.198Z,6.65
2019-05-11T15:07:47.878Z,7.30
2019-05-11T15:10:18.518Z,7.03
2019-05-11T15:12:45.920Z,7.17
2019-05-11T15:15:15.335Z,6.58
2019-05-11T15:17:42.973Z,5.53
2019-05-11T15:20:12.642Z,5.87
2019-05-11T15:22:40.497Z,5.57
2019-05-11T15:25:12.746Z,5.77
2019-05-11T15:27:40.434Z,6.10
2019-05-11T15:30:08.813Z,6.10
2019-05-11T15:32:37.582Z,5.60
2019-05-11T15:35:08.097Z,5.85
2019-05-11T15:37:38.515Z,6.03
2019-05-11T15:40:19.942Z,8.20
2019-05-11T15:42:48.794Z,7.90
2019-05-11T15:45:18.824Z,6.10
2019-05-11T15:47:48.756Z,6.37
2019-05-11T15:50:18.975Z,6.90
2019-05-11T15:52:48.773Z,8.97
2019-05-11T15:55:18.846Z,9.90
2019-05-11T15:57:48.204Z,9.13
2019-05-11T16:00:16.754Z,9.23
2019-05-11T16:02:44.384Z,9.20
2019-05-11T16:05:12.190Z,9.50
2019-05-11T16:07:39.841Z,9.20
2019-05-11T16:10:08.768Z,9.40
2019-05-11T16:12:38.843Z,8.90
2019-05-11T16:15:08.793Z,9.47
2019-05-11T16:17:40.137Z,10.27
2019-05-11T16:20:08.747Z,10.37
2019-05-11T16:22:38.809Z,10.13
2019-05-11T16:25:09.161Z,10.20
2019-05-11T16:27:38.001Z,11.07
2019-05-11T16:30:10.868Z,10.80
2019-05-11T16:32:38.778Z,10.80
2019-05-11T16:35:08.800Z,10.40
2019-05-11T16:37:37.963Z,10.67
2019-05-11T16:40:06.323Z,10.40
2019-05-11T16:42:33.938Z,11.07
2019-05-11T16:45:02.156Z,10.17
2019-05-11T16:47:31.218Z,10.53
2019-05-11T16:49:58.995Z,10.33
2019-05-11T16:52:27.990Z,10.27
2019-05-11T16:55:08.264Z,10.23
2019-05-11T16:57:38.209Z,10.00
2019-05-11T17:00:12.939Z,9.77
2019-05-11T17:02:40.827Z,9.40
2019-05-11T17:05:09.005Z,10.20
2019-05-11T17:07:37.700Z,10.67
2019-05-11T17:10:09.492Z,10.33
2019-05-11T17:12:40.449Z,9.93
2019-05-11T17:15:08.899Z,10.40
2019-05-11T17:17:36.745Z,10.57
2019-05-11T17:20:07.766Z,11.03
2019-05-11T17:22:35.634Z,10.77
2019-05-11T17:25:04.095Z,11.50
2019-05-11T17:27:31.897Z,11.47
2019-05-11T17:30:09.426Z,10.50
2019-05-11T17:32:39.580Z,11.10
2019-05-11T17:35:08.438Z,11.37
2019-05-11T17:37:38.680Z,11.27
2019-05-11T17:40:09.037Z,11.00
2019-05-11T17:42:41.963Z,11.30
2019-05-11T17:45:23.170Z,11.33
2019-05-11T17:48:00.638Z,11.37
2019-05-11T17:50:38.157Z,10.60
2019-05-11T17:53:05.101Z,10.50
2019-05-11T17:55:45.113Z,9.40
2019-05-11T17:58:13.244Z,9.97
2019-05-11T18:00:47.911Z,9.97
2019-05-11T18:03:15.612Z,10.33
2019-05-11T18:05:48.558Z,10.10
2019-05-11T18:08:18.792Z,10.70
2019-05-11T18:11:00.223Z,9.80
2019-05-11T18:13:29.446Z,9.77
2019-05-11T18:15:57.901Z,9.60
2019-05-11T18:18:34.728Z,9.70
2019-05-11T18:21:02.756Z,9.70
2019-05-11T18:23:36.027Z,10.20
2019-05-11T18:26:04.198Z,10.23
2019-05-11T18:28:32.119Z,10.47
2019-05-11T18:31:00.089Z,9.90
2019-05-11T18:33:28.192Z,11.00
2019-05-11T18:35:59.294Z,11.40
2019-05-11T18:38:27.793Z,13.13
2019-05-11T18:40:58.011Z,11.93
2019-05-11T18:43:27.964Z,12.37
2019-05-11T18:46:12.937Z,12.50
2019-05-11T18:48:41.118Z,13.63
2019-05-11T18:51:09.300Z,14.63
2019-05-11T18:53:37.400Z,13.40
2019-05-11T18:56:05.510Z,14.23
2019-05-11T18:58:38.384Z,14.23
2019-05-11T19:01:21.361Z,13.77
2019-05-11T19:03:49.288Z,15.63
2019-05-11T19:06:18.361Z,15.57
2019-05-11T19:08:48.631Z,16.20
2019-05-11T19:11:18.244Z,17.93
2019-05-11T19:13:49.731Z,18.10
2019-05-11T19:16:18.692Z,17.07
2019-05-11T19:18:47.977Z,19.33
2019-05-11T19:21:17.819Z,22.70
2019-05-11T19:23:45.570Z,26.10
2019-05-11T19:26:13.416Z,28.50
2019-05-11T19:28:41.264Z,32.47
2019-05-11T19:31:11.196Z,35.00
2019-05-11T19:33:38.714Z,28.13
2019-05-11T19:36:07.919Z,32.23
2019-05-11T19:38:38.227Z,28.17
2019-05-11T19:41:08.371Z,29.43
2019-05-11T19:43:38.125Z,26.77
2019-05-11T19:46:09.752Z,27.93
2019-05-11T19:48:39.579Z,28.40
2019-05-11T19:51:11.563Z,29.23
2019-05-11T19:53:38.592Z,29.73
2019-05-11T19:56:07.773Z,25.87
2019-05-11T19:58:37.895Z,25.40
2019-05-11T20:01:08.489Z,26.20
2019-05-11T20:03:37.858Z,26.63
2019-05-11T20:06:08.564Z,28.13
2019-05-11T20:08:40.832Z,27.37
2019-05-11T20:11:09.573Z,32.53
2019-05-11T20:13:38.806Z,36.70
2019-05-11T20:16:08.279Z,36.80
2019-05-11T20:18:36.796Z,37.00
2019-05-11T20:21:18.545Z,30.87
2019-05-11T20:23:34.564Z,36.13
2019-05-11T20:26:02.962Z,35.70
2019-05-11T20:28:31.854Z,34.30
2019-05-11T20:30:59.858Z,38.53
2019-05-11T20:33:28.055Z,43.03
2019-05-11T20:35:58.124Z,41.63
2019-05-11T20:38:38.503Z,43.40
2019-05-11T20:41:08.350Z,47.47
2019-05-11T20:43:36.148Z,43.63
2019-05-11T20:46:04.040Z,42.97
2019-05-11T20:48:32.089Z,44.90
2019-05-11T20:51:03.584Z,40.73
2019-05-11T20:53:31.367Z,41.13
2019-05-11T20:55:59.274Z,39.43
2019-05-11T20:58:28.917Z,42.23
2019-05-11T21:00:56.812Z,44.47
2019-05-11T21:03:27.560Z,40.13
2019-05-11T21:05:55.040Z,42.43
2019-05-11T21:08:23.568Z,44.93
2019-05-11T21:10:51.521Z,44.63
2019-05-11T21:13:19.479Z,42.90
2019-05-11T21:15:48.012Z,44.23
2019-05-11T21:18:18.262Z,42.60
2019-05-11T21:20:48.176Z,45.53
2019-05-11T21:23:18.544Z,42.67
2019-05-11T21:25:46.540Z,46.10
2019-05-11T21:28:16.339Z,44.03
2019-05-11T21:30:48.127Z,44.30
2019-05-11T21:33:21.282Z,46.27
2019-05-11T21:35:50.226Z,45.53
2019-05-11T21:38:18.618Z,50.57
2019-05-11T21:40:48.456Z,45.20
2019-05-11T21:43:16.217Z,44.20
2019-05-11T21:45:44.011Z,49.57
2019-05-11T21:48:11.855Z,41.63
2019-05-11T21:50:39.872Z,42.47
2019-05-11T21:53:08.108Z,45.73
2019-05-11T21:55:37.817Z,47.73
2019-05-11T21:58:05.714Z,45.37
2019-05-11T22:00:34.201Z,45.07
2019-05-11T22:03:02.525Z,48.30
2019-05-11T22:05:30.535Z,48.90
2019-05-11T22:07:58.411Z,44.77
2019-05-11T22:10:28.344Z,48.03
2019-05-11T22:12:56.095Z,50.27
2019-05-11T22:15:24.354Z,62.20
2019-05-11T22:17:52.054Z,53.50
2019-05-11T22:20:22.351Z,51.00
2019-05-11T22:22:50.053Z,56.00
2019-05-11T22:25:18.449Z,53.10
2019-05-11T22:27:48.842Z,54.20
2019-05-11T22:30:18.555Z,52.63
2019-05-11T22:32:47.745Z,54.03
2019-05-11T22:35:18.058Z,57.03
2019-05-11T22:37:45.374Z,55.03
2019-05-11T22:40:13.351Z,48.83
2019-05-11T22:42:41.265Z,51.67
2019-05-11T22:45:09.830Z,55.93
2019-05-11T22:47:39.372Z,51.83
2019-05-11T22:50:07.992Z,53.17
2019-05-11T22:52:37.347Z,53.30
2019-05-11T22:55:11.135Z,49.77
2019-05-11T22:57:37.935Z,55.13
2019-05-11T23:00:08.168Z,45.87
2019-05-11T23:02:38.024Z,46.87
2019-05-11T23:05:08.181Z,44.60
2019-05-11T23:07:37.641Z,42.17
2019-05-11T23:10:05.376Z,45.17
2019-05-11T23:12:33.673Z,45.40
2019-05-11T23:15:12.415Z,45.87
2019-05-11T23:17:40.595Z,40.60
2019-05-11T23:20:09.690Z,41.43
2019-05-11T23:22:54.265Z,40.90
2019-05-11T23:25:18.433Z,40.13
2019-05-11T23:27:48.535Z,39.90
2019-05-11T23:30:19.629Z,37.83
2019-05-11T23:32:48.514Z,37.33
2019-05-11T23:35:18.746Z,39.53
2019-05-11T23:37:49.365Z,38.67
2019-05-11T23:40:18.263Z,40.57
2019-05-11T23:42:48.678Z,37.63
2019-05-11T23:45:18.529Z,36.70
2019-05-11T23:47:48.300Z,39.13
2019-05-11T23:50:15.716Z,38.23
2019-05-11T23:52:43.773Z,38.90
2019-05-11T23:55:13.339Z,35.87
2019-05-11T23:57:41.420Z,40.37
